Time;durP1;ratioP1;P1;durP2;ratioP2;P2;SDS_P1;SDS_P2;PMS_P1;PMS_P2;Temp;Humidity;BMP_temperature;BMP_pressure;BME280_temperature;BME280_humidity;BME280_pressure;Samples;Min_cycle;Max_cycle;Signal;HPM_P1;HPM_P2
2022/03/15 00:01:23;;;;;;;4.95;3.50;;;7.40;99.90;;;;;;5100976;28;20031;-81
2022/03/15 00:03:49;;;;;;;8.10;3.58;;;7.40;99.90;;;;;;5099337;28;20069;-79
2022/03/15 00:06:15;;;;;;;7.25;4.20;;;7.50;99.90;;;;;;5109200;28;20032;-76
2022/03/15 00:08:41;;;;;;;10.13;5.13;;;7.40;99.90;;;;;;5105965;28;20020;-74
2022/03/15 00:11:08;;;;;;;10.60;5.05;;;7.40;99.90;;;;;;5110919;28;20545;-76
2022/03/15 00:13:37;;;;;;;7.63;4.43;;;7.50;99.90;;;;;;5098498;28;20508;-80
2022/03/15 00:16:04;;;;;;;6.80;4.50;;;7.40;99.90;;;;;;5094838;28;20051;-77
2022/03/15 00:18:31;;;;;;;5.10;4.03;;;7.40;99.90;;;;;;5097435;28;20487;-78
2022/03/15 00:21:05;;;;;;;10.80;4.47;;;7.60;99.90;;;;;;5089006;28;20495;-83
2022/03/15 00:23:31;;;;;;;7.55;3.88;;;7.80;99.90;;;;;;5095506;28;20047;-78
2022/03/15 00:25:57;;;;;;;6.82;4.57;;;7.70;99.90;;;;;;5087793;28;20043;-78
2022/03/15 00:28:24;;;;;;;5.82;4.13;;;7.60;99.90;;;;;;5092499;28;20023;-80
2022/03/15 00:30:50;;;;;;;9.23;4.40;;;7.60;99.90;;;;;;5119612;28;20015;-79
2022/03/15 00:33:16;;;;;;;8.00;4.50;;;7.40;99.90;;;;;;5112438;28;20440;-76
2022/03/15 00:35:43;;;;;;;5.60;4.18;;;7.30;99.90;;;;;;5091521;28;20111;-77
2022/03/15 00:38:10;;;;;;;10.25;4.07;;;7.30;99.90;;;;;;5090883;28;20019;-77
2022/03/15 00:40:36;;;;;;;12.02;4.25;;;7.20;99.90;;;;;;5091847;28;20027;-79
2022/03/15 00:43:11;;;;;;;12.45;4.45;;;7.30;99.90;;;;;;5109516;28;20061;-79
2022/03/15 00:45:36;;;;;;;9.60;4.28;;;7.30;99.90;;;;;;5112616;28;20038;-80
2022/03/15 00:48:02;;;;;;;9.82;4.43;;;7.30;99.90;;;;;;5111426;28;20039;-78
2022/03/15 00:50:29;;;;;;;8.90;4.03;;;7.20;99.90;;;;;;5108597;28;20019;-80
2022/03/15 00:52:56;;;;;;;8.35;5.05;;;7.20;99.90;;;;;;5096635;28;20032;-79
2022/03/15 00:55:22;;;;;;;7.88;3.95;;;7.20;99.90;;;;;;5096845;28;20020;-80
2022/03/15 00:57:47;;;;;;;10.80;5.03;;;7.10;99.90;;;;;;5100891;28;20034;-80
2022/03/15 01:00:16;;;;;;;12.80;4.70;;;7.10;99.90;;;;;;5113782;28;20559;-82
2022/03/15 01:02:42;;;;;;;6.35;3.92;;;7.10;99.90;;;;;;5092365;28;20375;-83
2022/03/15 01:05:08;;;;;;;8.77;3.60;;;7.10;99.90;;;;;;5099267;28;20031;-82
2022/03/15 01:07:37;;;;;;;10.77;3.75;;;7.10;99.90;;;;;;5113301;28;20039;-86
2022/03/15 01:10:03;;;;;;;7.20;4.45;;;7.10;99.90;;;;;;5092358;28;20139;-76
2022/03/15 01:12:28;;;;;;;8.80;3.95;;;7.10;99.90;;;;;;5114250;28;20533;-77
2022/03/15 01:14:54;;;;;;;10.15;3.95;;;7.10;99.90;;;;;;5091372;28;20031;-77
2022/03/15 01:17:20;;;;;;;12.23;5.97;;;7.10;99.90;;;;;;5111765;28;20024;-76
2022/03/15 01:19:45;;;;;;;17.27;6.05;;;7.10;99.90;;;;;;5110921;28;20030;-76
2022/03/15 01:22:11;;;;;;;7.45;4.38;;;7.10;99.90;;;;;;5105855;28;20028;-79
2022/03/15 01:24:37;;;;;;;13.60;5.65;;;7.10;99.90;;;;;;5093329;28;20027;-78
2022/03/15 01:27:02;;;;;;;8.38;4.13;;;7.10;99.90;;;;;;5096160;28;20036;-79
2022/03/15 01:29:28;;;;;;;7.95;4.22;;;7.30;99.90;;;;;;5098345;28;20470;-79
2022/03/15 01:31:54;;;;;;;11.00;5.03;;;7.30;99.90;;;;;;5088908;28;20028;-78
2022/03/15 01:34:20;;;;;;;11.68;3.38;;;7.20;99.90;;;;;;5111773;28;20035;-80
2022/03/15 01:36:46;;;;;;;7.47;3.28;;;7.20;99.90;;;;;;5119440;28;20054;-78
2022/03/15 01:39:12;;;;;;;9.00;3.75;;;7.10;99.90;;;;;;5108353;28;20520;-80
2022/03/15 01:41:39;;;;;;;8.65;4.15;;;7.00;99.90;;;;;;5120942;28;20027;-79
2022/03/15 01:44:17;;;;;;;11.25;4.53;;;7.00;99.90;;;;;;5116885;28;20020;-78
2022/03/15 01:46:43;;;;;;;8.98;4.40;;;7.00;99.90;;;;;;5117170;28;20070;-79
2022/03/15 01:49:09;;;;;;;6.13;4.28;;;7.00;99.90;;;;;;5093701;28;20019;-78
2022/03/15 01:51:37;;;;;;;5.93;3.67;;;7.00;99.90;;;;;;5094441;28;20039;-80
2022/03/15 01:54:03;;;;;;;7.88;3.80;;;7.00;99.90;;;;;;5096826;28;20112;-79
2022/03/15 01:56:29;;;;;;;5.15;3.80;;;7.00;99.90;;;;;;5093428;28;20099;-79
2022/03/15 01:58:54;;;;;;;5.38;4.10;;;7.10;99.90;;;;;;5118147;28;20043;-79
2022/03/15 02:01:20;;;;;;;8.23;4.47;;;7.30;99.90;;;;;;5092285;28;20020;-79
2022/03/15 02:03:45;;;;;;;7.18;4.72;;;7.20;99.90;;;;;;5120388;28;20035;-79
2022/03/15 02:06:11;;;;;;;6.53;4.47;;;7.10;99.90;;;;;;5092703;28;20028;-80
2022/03/15 02:08:36;;;;;;;8.52;4.40;;;7.00;99.90;;;;;;5112931;28;20062;-80
2022/03/15 02:11:02;;;;;;;6.03;4.88;;;6.90;99.90;;;;;;5102377;28;20082;-79
2022/03/15 02:13:29;;;;;;;8.85;4.60;;;6.90;99.90;;;;;;5092745;28;20016;-79
2022/03/15 02:15:55;;;;;;;7.25;4.80;;;6.90;99.90;;;;;;5090794;28;20023;-78
2022/03/15 02:18:23;;;;;;;8.68;4.20;;;6.90;99.90;;;;;;5120050;28;20020;-79
2022/03/15 02:20:49;;;;;;;11.57;4.63;;;6.90;99.90;;;;;;5115477;28;20031;-79
2022/03/15 02:23:14;;;;;;;5.10;3.25;;;6.90;99.90;;;;;;5100216;28;20024;-79
2022/03/15 02:25:41;;;;;;;6.82;4.03;;;6.90;99.90;;;;;;5092741;28;20483;-79
2022/03/15 02:28:07;;;;;;;5.97;3.50;;;6.90;99.90;;;;;;5097056;28;20036;-79
2022/03/15 02:30:34;;;;;;;6.03;4.13;;;6.90;99.90;;;;;;5095746;28;20023;-79
2022/03/15 02:32:59;;;;;;;9.15;4.53;;;6.90;99.90;;;;;;5104871;28;20028;-78
2022/03/15 02:35:25;;;;;;;8.18;4.45;;;6.90;99.90;;;;;;5121567;28;20128;-79
2022/03/15 02:37:50;;;;;;;5.75;3.90;;;7.00;99.90;;;;;;5096436;28;20391;-80
2022/03/15 02:40:16;;;;;;;5.53;3.80;;;6.90;99.90;;;;;;5122338;28;20028;-80
2022/03/15 02:42:43;;;;;;;7.13;3.72;;;7.00;99.90;;;;;;5122010;28;20043;-79
2022/03/15 02:45:10;;;;;;;5.45;2.85;;;7.00;99.90;;;;;;5104821;28;20016;-79
2022/03/15 02:47:35;;;;;;;5.70;3.97;;;7.00;99.90;;;;;;5103341;28;20042;-80
2022/03/15 02:50:01;;;;;;;6.20;3.53;;;7.00;99.90;;;;;;5122543;28;20020;-80
2022/03/15 02:52:28;;;;;;;5.13;3.55;;;6.90;99.90;;;;;;5106107;28;20031;-78
2022/03/15 02:54:55;;;;;;;6.63;3.30;;;6.90;99.90;;;;;;5096951;28;20027;-80
2022/03/15 02:57:23;;;;;;;5.18;3.63;;;6.90;99.90;;;;;;5102053;28;20031;-79
2022/03/15 02:59:48;;;;;;;9.32;3.85;;;7.10;99.90;;;;;;5101999;28;20024;-80
2022/03/15 03:02:14;;;;;;;4.28;2.83;;;7.20;99.90;;;;;;5097048;28;20030;-79
2022/03/15 03:04:40;;;;;;;8.10;3.30;;;7.10;99.90;;;;;;5092659;28;20031;-80
2022/03/15 03:07:06;;;;;;;5.57;3.47;;;7.00;99.90;;;;;;5103794;28;20430;-79
2022/03/15 03:09:32;;;;;;;7.53;3.40;;;7.00;99.90;;;;;;5118677;28;20020;-79
2022/03/15 03:11:58;;;;;;;4.22;3.33;;;7.00;99.90;;;;;;5117766;28;20391;-78
2022/03/15 03:14:25;;;;;;;5.10;3.20;;;7.10;99.90;;;;;;5099676;28;20024;-80
2022/03/15 03:16:50;;;;;;;5.05;3.13;;;7.10;99.90;;;;;;5098646;28;20035;-80
2022/03/15 03:19:16;;;;;;;6.15;3.10;;;7.00;99.90;;;;;;5095166;28;20028;-78
2022/03/15 03:21:42;;;;;;;12.07;3.30;;;7.00;99.90;;;;;;5090338;28;20028;-81
2022/03/15 03:24:08;;;;;;;6.35;3.47;;;6.90;99.90;;;;;;5120256;28;20023;-79
2022/03/15 03:26:37;;;;;;;8.18;3.38;;;6.90;99.90;;;;;;5119474;28;20024;-79
2022/03/15 03:29:10;;;;;;;7.63;4.75;;;6.90;99.90;;;;;;5113736;28;20115;-80
2022/03/15 03:31:40;;;;;;;5.50;3.97;;;6.90;99.90;;;;;;5088340;28;20514;-79
2022/03/15 03:34:06;;;;;;;7.05;4.40;;;6.90;99.90;;;;;;5094255;28;20499;-77
2022/03/15 03:36:36;;;;;;;8.55;5.28;;;6.80;99.90;;;;;;5092108;28;20083;-78
2022/03/15 03:39:04;;;;;;;5.50;4.47;;;6.90;99.90;;;;;;5103128;28;20569;-81
2022/03/15 03:41:30;;;;;;;3.90;3.50;;;7.00;99.90;;;;;;5098589;28;20024;-80
2022/03/15 03:43:55;;;;;;;5.70;3.60;;;7.00;99.90;;;;;;5110880;28;20034;-78
2022/03/15 03:46:21;;;;;;;6.50;3.53;;;7.00;99.90;;;;;;5112533;28;20483;-80
2022/03/15 03:48:47;;;;;;;5.30;3.28;;;7.00;99.90;;;;;;5110992;28;20084;-79
2022/03/15 03:51:13;;;;;;;7.20;4.55;;;7.00;99.90;;;;;;5093520;28;20076;-80
2022/03/15 03:53:39;;;;;;;6.07;3.60;;;7.00;99.90;;;;;;5112132;28;20434;-79
2022/03/15 03:56:05;;;;;;;5.72;3.88;;;7.10;99.90;;;;;;5089520;28;20499;-80
2022/03/15 03:58:31;;;;;;;8.90;4.68;;;7.00;99.90;;;;;;5114339;28;20030;-80
2022/03/15 04:00:56;;;;;;;6.35;3.88;;;6.90;99.90;;;;;;5110985;28;20494;-78
2022/03/15 04:03:24;;;;;;;5.45;4.53;;;6.80;99.90;;;;;;5112968;28;20401;-79
2022/03/15 04:05:51;;;;;;;8.20;3.28;;;6.70;99.90;;;;;;5093165;28;20014;-79
2022/03/15 04:08:17;;;;;;;11.73;5.38;;;6.70;99.90;;;;;;5114346;28;20011;-79
2022/03/15 04:10:45;;;;;;;10.93;4.60;;;6.70;99.90;;;;;;5130055;28;20027;-79
2022/03/15 04:13:11;;;;;;;7.28;4.00;;;6.70;99.90;;;;;;5130278;28;20028;-79
2022/03/15 04:15:37;;;;;;;7.35;2.88;;;6.70;99.90;;;;;;5119444;28;20015;-79
2022/03/15 04:18:03;;;;;;;7.97;4.10;;;6.60;99.90;;;;;;5118896;28;20024;-79
2022/03/15 04:20:29;;;;;;;8.68;3.97;;;6.60;99.90;;;;;;5117985;28;20218;-77
2022/03/15 04:22:55;;;;;;;12.23;4.28;;;6.60;99.90;;;;;;5138299;28;20016;-79
2022/03/15 04:25:21;;;;;;;7.28;3.40;;;6.60;99.90;;;;;;5119647;28;20022;-79
2022/03/15 04:27:47;;;;;;;6.85;4.07;;;6.50;99.90;;;;;;5134057;27;20045;-78
2022/03/15 04:30:13;;;;;;;10.63;4.75;;;6.60;99.90;;;;;;5116695;28;20032;-80
2022/03/15 04:32:39;;;;;;;10.95;5.07;;;6.50;99.90;;;;;;5101306;28;20146;-79
2022/03/15 04:35:05;;;;;;;14.90;5.68;;;6.60;99.90;;;;;;5116835;28;20062;-79
2022/03/15 04:37:31;;;;;;;7.90;5.00;;;6.50;99.90;;;;;;5114746;28;20030;-80
2022/03/15 04:39:58;;;;;;;21.30;10.45;;;6.50;99.90;;;;;;5102931;28;20097;-79
2022/03/15 04:42:24;;;;;;;10.38;5.32;;;6.50;99.90;;;;;;5112637;28;20042;-79
2022/03/15 04:44:50;;;;;;;8.15;4.50;;;6.60;99.90;;;;;;5131876;28;20023;-79
2022/03/15 04:47:16;;;;;;;7.38;5.18;;;6.80;99.90;;;;;;5134142;28;20015;-79
2022/03/15 04:49:41;;;;;;;12.95;5.50;;;6.90;99.90;;;;;;5114558;28;20023;-78
2022/03/15 04:52:07;;;;;;;6.85;4.78;;;7.00;99.90;;;;;;5130216;28;20043;-79
2022/03/15 04:54:33;;;;;;;15.95;6.95;;;7.00;99.90;;;;;;5117162;28;20023;-78
2022/03/15 04:56:58;;;;;;;8.90;4.78;;;7.00;99.90;;;;;;5099793;28;20035;-79
2022/03/15 04:59:24;;;;;;;7.38;4.97;;;6.90;99.90;;;;;;5102062;28;20026;-80
2022/03/15 05:01:49;;;;;;;8.68;4.75;;;6.70;99.90;;;;;;5098570;28;20051;-79
2022/03/15 05:04:15;;;;;;;13.27;4.97;;;6.70;99.90;;;;;;5098015;28;20026;-80
2022/03/15 05:06:41;;;;;;;8.48;5.93;;;6.60;99.90;;;;;;5111783;28;20016;-77
2022/03/15 05:09:06;;;;;;;6.35;5.05;;;6.60;99.90;;;;;;5131849;28;20024;-78
2022/03/15 05:11:34;;;;;;;13.90;6.88;;;6.70;99.90;;;;;;5112510;28;20020;-78
2022/03/15 05:13:59;;;;;;;11.07;5.80;;;6.70;99.90;;;;;;5130577;27;20016;-78
2022/03/15 05:16:25;;;;;;;12.85;5.30;;;6.50;99.90;;;;;;5106643;28;20110;-78
2022/03/15 05:18:54;;;;;;;9.52;5.53;;;6.50;99.90;;;;;;5094233;28;20069;-79
2022/03/15 05:21:23;;;;;;;7.80;5.28;;;6.50;99.90;;;;;;5097322;28;20034;-80
2022/03/15 05:23:49;;;;;;;7.90;5.55;;;6.40;99.90;;;;;;5095939;28;20020;-80
2022/03/15 05:26:16;;;;;;;13.65;5.60;;;6.40;99.90;;;;;;5095534;28;20077;-81
2022/03/15 05:28:43;;;;;;;12.32;6.63;;;6.40;99.90;;;;;;5115796;28;20024;-80
2022/03/15 05:31:09;;;;;;;10.13;5.57;;;6.40;99.90;;;;;;5092309;28;20035;-81
2022/03/15 05:33:34;;;;;;;7.82;5.18;;;6.50;99.90;;;;;;5111095;28;20027;-80
2022/03/15 05:36:00;;;;;;;12.55;6.60;;;6.70;99.90;;;;;;5096094;28;20039;-81
2022/03/15 05:38:26;;;;;;;12.90;6.70;;;6.80;99.90;;;;;;5088828;28;20056;-81
2022/03/15 05:40:53;;;;;;;11.27;6.60;;;6.90;99.90;;;;;;5097232;28;20081;-79
2022/03/15 05:43:20;;;;;;;18.10;7.78;;;6.90;99.90;;;;;;5090425;28;20112;-81
2022/03/15 05:45:46;;;;;;;14.57;7.13;;;6.80;99.90;;;;;;5097826;28;20050;-79
2022/03/15 05:48:12;;;;;;;15.63;7.88;;;6.80;99.90;;;;;;5097461;28;20048;-80
2022/03/15 05:50:37;;;;;;;13.95;6.88;;;6.70;99.90;;;;;;5112438;28;20050;-79
2022/03/15 05:53:04;;;;;;;11.27;6.70;;;6.70;99.90;;;;;;5093596;28;20787;-81
2022/03/15 05:55:34;;;;;;;12.60;6.28;;;6.60;99.90;;;;;;5112950;28;20020;-80
2022/03/15 05:58:00;;;;;;;13.17;7.33;;;6.70;99.90;;;;;;5092232;28;20043;-79
2022/03/15 06:00:27;;;;;;;12.75;6.35;;;6.80;99.90;;;;;;5114204;28;20286;-80
2022/03/15 06:02:53;;;;;;;18.88;8.95;;;6.80;99.90;;;;;;5125454;28;20027;-78
2022/03/15 06:05:18;;;;;;;11.35;6.20;;;6.80;99.90;;;;;;5110391;28;20043;-79
2022/03/15 06:07:50;;;;;;;9.52;5.63;;;6.80;99.90;;;;;;5102393;28;20020;-79
2022/03/15 06:10:17;;;;;;;12.23;5.72;;;6.90;99.90;;;;;;5115939;28;20040;-80
2022/03/15 06:12:43;;;;;;;9.70;6.20;;;7.00;99.90;;;;;;5113024;28;20039;-80
2022/03/15 06:15:10;;;;;;;9.45;5.93;;;6.90;99.90;;;;;;5120004;28;20388;-80
2022/03/15 06:17:44;;;;;;;11.02;5.63;;;7.00;99.90;;;;;;5099896;28;20027;-79
2022/03/15 06:20:13;;;;;;;11.73;5.35;;;7.10;99.90;;;;;;5097994;28;20698;-80
2022/03/15 06:22:39;;;;;;;10.35;4.70;;;7.30;99.90;;;;;;5118443;28;20019;-82
2022/03/15 06:25:05;;;;;;;10.65;5.00;;;7.40;99.90;;;;;;5118971;28;20088;-79
2022/03/15 06:27:30;;;;;;;10.05;4.65;;;7.40;99.90;;;;;;5108904;28;20031;-80
2022/03/15 06:29:57;;;;;;;8.75;4.82;;;7.30;99.90;;;;;;5093497;27;20032;-81
2022/03/15 06:32:23;;;;;;;8.48;5.00;;;7.10;99.90;;;;;;5120290;27;20034;-80
2022/03/15 06:34:49;;;;;;;10.10;5.35;;;7.10;99.90;;;;;;5120075;28;20027;-79
2022/03/15 06:37:15;;;;;;;21.00;6.13;;;7.10;99.90;;;;;;5099882;28;20035;-81
2022/03/15 06:39:40;;;;;;;17.73;5.93;;;7.10;99.90;;;;;;5096129;28;20115;-80
2022/03/15 06:42:11;;;;;;;14.13;6.25;;;7.10;99.90;;;;;;5091566;28;20080;-79
2022/03/15 06:44:38;;;;;;;12.70;5.55;;;7.10;99.90;;;;;;5118325;28;20573;-81
2022/03/15 06:47:04;;;;;;;8.98;5.65;;;7.20;99.90;;;;;;5116475;28;20134;-79
2022/03/15 06:49:29;;;;;;;18.33;5.63;;;7.40;99.90;;;;;;5098651;28;20048;-79
2022/03/15 06:51:55;;;;;;;10.70;5.38;;;7.40;99.90;;;;;;5098911;28;20499;-80
2022/03/15 06:54:21;;;;;;;10.20;5.60;;;7.60;99.90;;;;;;5117377;28;20028;-80
2022/03/15 06:56:47;;;;;;;11.73;5.15;;;7.50;99.90;;;;;;5118602;28;20118;-80
2022/03/15 06:59:12;;;;;;;9.13;5.93;;;7.80;99.90;;;;;;5114621;28;20074;-78
2022/03/15 07:01:38;;;;;;;9.77;5.60;;;7.90;99.90;;;;;;5114987;28;20031;-79
2022/03/15 07:04:03;;;;;;;13.50;5.10;;;8.00;99.90;;;;;;5099570;28;20081;-79
2022/03/15 07:06:29;;;;;;;13.38;4.97;;;8.20;99.90;;;;;;5116946;28;20027;-80
2022/03/15 07:08:55;;;;;;;12.27;5.40;;;8.10;99.90;;;;;;5118617;28;20031;-81
2022/03/15 07:11:20;;;;;;;9.73;4.95;;;7.90;99.90;;;;;;5099244;28;20909;-80
2022/03/15 07:13:46;;;;;;;11.57;6.50;;;7.90;99.90;;;;;;5097120;28;20051;-80
2022/03/15 07:16:12;;;;;;;6.60;5.03;;;7.70;99.90;;;;;;5100121;28;20088;-80
2022/03/15 07:18:37;;;;;;;9.20;5.13;;;7.60;99.90;;;;;;5116646;28;20024;-80
2022/03/15 07:21:03;;;;;;;9.98;5.38;;;7.70;99.90;;;;;;5100495;28;20042;-80
2022/03/15 07:23:28;;;;;;;10.65;5.03;;;7.80;99.90;;;;;;5097573;28;20012;-80
2022/03/15 07:25:54;;;;;;;12.55;5.95;;;8.10;99.90;;;;;;5099447;28;20484;-80
2022/03/15 07:28:20;;;;;;;12.13;4.78;;;8.00;99.90;;;;;;5095433;28;20059;-80
2022/03/15 07:30:46;;;;;;;12.27;5.85;;;7.80;99.90;;;;;;5098223;28;20028;-80
2022/03/15 07:33:11;;;;;;;9.45;6.57;;;7.80;99.90;;;;;;5111993;28;20056;-79
2022/03/15 07:35:37;;;;;;;12.15;6.25;;;7.80;99.90;;;;;;5113931;28;20036;-81
2022/03/15 07:38:03;;;;;;;9.77;5.65;;;7.90;99.90;;;;;;5101061;28;20499;-79
2022/03/15 07:40:31;;;;;;;13.27;5.10;;;7.80;99.90;;;;;;5118975;28;20087;-82
2022/03/15 07:42:57;;;;;;;10.95;5.25;;;7.90;99.90;;;;;;5101390;28;20023;-79
2022/03/15 07:45:23;;;;;;;10.30;5.90;;;8.20;99.90;;;;;;5112517;28;20027;-81
2022/03/15 07:47:49;;;;;;;10.18;5.43;;;8.50;99.90;;;;;;5119233;28;20043;-80
2022/03/15 07:50:16;;;;;;;9.40;5.18;;;8.60;99.90;;;;;;5118579;28;20024;-80
2022/03/15 07:52:41;;;;;;;13.50;5.07;;;8.60;99.90;;;;;;5116251;28;20107;-80
2022/03/15 07:55:08;;;;;;;15.85;7.88;;;8.80;99.90;;;;;;5100173;28;20069;-80
2022/03/15 07:57:34;;;;;;;9.57;5.03;;;8.80;99.90;;;;;;5099337;28;20023;-81
2022/03/15 07:59:59;;;;;;;7.88;5.05;;;8.80;99.90;;;;;;5101663;28;20027;-81
2022/03/15 08:02:25;;;;;;;10.10;5.35;;;8.80;99.90;;;;;;5127404;28;20034;-78
2022/03/15 08:04:53;;;;;;;14.18;5.85;;;8.80;99.90;;;;;;5117454;28;20075;-78
2022/03/15 08:07:21;;;;;;;7.47;5.32;;;8.70;99.90;;;;;;5120876;28;20016;-79
2022/03/15 08:09:47;;;;;;;15.10;5.65;;;8.90;99.90;;;;;;5114180;28;20036;-78
2022/03/15 08:12:13;;;;;;;10.02;5.85;;;8.90;99.90;;;;;;5120546;28;20053;-78
2022/03/15 08:14:38;;;;;;;9.57;5.63;;;9.00;99.90;;;;;;5116593;28;20037;-78
2022/03/15 08:17:04;;;;;;;11.80;5.50;;;9.00;99.90;;;;;;5101663;28;20039;-79
2022/03/15 08:19:30;;;;;;;15.68;6.28;;;9.10;99.90;;;;;;5096469;28;20028;-80
2022/03/15 08:21:57;;;;;;;19.25;7.53;;;9.10;99.90;;;;;;5117286;28;20019;-80
2022/03/15 08:24:23;;;;;;;13.57;5.95;;;9.10;99.90;;;;;;5118459;28;20019;-82
2022/03/15 08:26:49;;;;;;;23.13;8.63;;;9.40;99.90;;;;;;5117097;28;20023;-79
2022/03/15 08:29:14;;;;;;;6.38;5.22;;;9.50;99.90;;;;;;5118407;28;20050;-80
2022/03/15 08:31:40;;;;;;;14.07;7.00;;;9.90;99.90;;;;;;5105782;28;20471;-80
2022/03/15 08:34:06;;;;;;;15.15;5.45;;;10.10;99.90;;;;;;5113218;28;20023;-79
2022/03/15 08:36:31;;;;;;;15.23;5.38;;;10.10;99.90;;;;;;5115279;28;20031;-80
2022/03/15 08:38:57;;;;;;;10.55;5.28;;;10.10;99.90;;;;;;5102609;28;20038;-81
2022/03/15 08:41:22;;;;;;;12.57;4.78;;;10.40;99.90;;;;;;5100360;28;20047;-81
2022/03/15 08:43:48;;;;;;;10.38;4.88;;;10.50;99.90;;;;;;5120851;28;20047;-80
2022/03/15 08:46:14;;;;;;;8.80;5.47;;;10.60;99.90;;;;;;5121393;28;20032;-80
2022/03/15 08:48:39;;;;;;;7.65;4.80;;;10.30;99.90;;;;;;5124420;28;20035;-82
2022/03/15 08:51:05;;;;;;;8.48;5.15;;;10.30;99.90;;;;;;5120871;28;20027;-80
2022/03/15 08:53:35;;;;;;;19.88;5.00;;;10.20;99.90;;;;;;5110596;28;20023;-79
2022/03/15 08:56:02;;;;;;;18.80;4.85;;;10.30;99.90;;;;;;5115654;28;20239;-81
2022/03/15 08:58:28;;;;;;;15.13;5.50;;;10.50;99.90;;;;;;5098290;28;20053;-79
2022/03/15 09:00:54;;;;;;;11.98;5.40;;;10.40;99.90;;;;;;5096483;28;20027;-80
2022/03/15 09:03:22;;;;;;;14.30;5.18;;;10.80;99.90;;;;;;5121027;28;20020;-81
2022/03/15 09:05:48;;;;;;;9.95;5.30;;;10.80;99.90;;;;;;5096911;28;20106;-81
2022/03/15 09:08:13;;;;;;;10.45;5.13;;;10.90;99.90;;;;;;5113303;28;20016;-79
2022/03/15 09:10:39;;;;;;;9.25;5.10;;;10.90;99.90;;;;;;5098891;28;20065;-79
2022/03/15 09:13:07;;;;;;;10.23;3.83;;;11.20;99.90;;;;;;5113803;28;20030;-80
2022/03/15 09:15:33;;;;;;;11.25;5.18;;;11.20;99.90;;;;;;5096814;28;20226;-81
2022/03/15 09:17:59;;;;;;;6.45;4.43;;;11.30;99.90;;;;;;5101529;28;20031;-80
2022/03/15 09:20:25;;;;;;;13.98;5.13;;;11.00;99.90;;;;;;5119638;28;20019;-81
2022/03/15 09:22:51;;;;;;;14.30;5.38;;;11.20;99.90;;;;;;5102067;28;20508;-80
2022/03/15 09:25:17;;;;;;;7.82;4.25;;;11.30;99.90;;;;;;5099230;28;20015;-80
2022/03/15 09:27:43;;;;;;;12.32;5.38;;;11.30;99.90;;;;;;5102883;28;20099;-81
2022/03/15 09:30:09;;;;;;;7.32;5.13;;;11.30;99.90;;;;;;5099749;28;20110;-80
2022/03/15 09:32:35;;;;;;;10.60;5.18;;;11.20;99.90;;;;;;5118058;28;20113;-81
2022/03/15 09:35:00;;;;;;;7.68;4.68;;;11.50;99.90;;;;;;5092185;28;20043;-80
2022/03/15 09:37:26;;;;;;;6.03;3.15;;;11.50;99.90;;;;;;5104802;28;20053;-80
2022/03/15 09:39:52;;;;;;;7.18;2.83;;;11.60;99.90;;;;;;5100723;28;20134;-79
2022/03/15 09:42:20;;;;;;;7.60;3.58;;;11.50;99.90;;;;;;5115981;28;20028;-81
2022/03/15 09:44:47;;;;;;;7.07;4.07;;;11.50;99.90;;;;;;5107134;28;20019;-79
2022/03/15 09:47:17;;;;;;;14.35;5.25;;;11.90;99.90;;;;;;5106576;28;20020;-81
2022/03/15 09:49:46;;;;;;;11.10;5.10;;;12.10;99.90;;;;;;5101514;28;20035;-82
2022/03/15 09:52:12;;;;;;;12.65;4.93;;;12.20;99.90;;;;;;5093381;28;20438;-80
2022/03/15 09:54:38;;;;;;;10.27;5.22;;;12.20;99.90;;;;;;5103639;28;20024;-82
2022/03/15 09:57:05;;;;;;;9.75;5.57;;;12.20;99.90;;;;;;5106594;28;20092;-80
2022/03/15 09:59:32;;;;;;;14.48;6.18;;;12.10;99.90;;;;;;5117552;28;20445;-82
2022/03/15 10:01:59;;;;;;;9.43;5.25;;;11.90;99.90;;;;;;5097577;28;20023;-79
2022/03/15 10:04:25;;;;;;;16.80;5.45;;;11.90;99.90;;;;;;5099010;28;20023;-81
2022/03/15 10:06:52;;;;;;;9.93;5.97;;;11.60;99.90;;;;;;5103740;28;20420;-82
2022/03/15 10:09:18;;;;;;;12.35;6.07;;;11.70;99.90;;;;;;5123479;28;20033;-80
2022/03/15 10:11:43;;;;;;;14.15;5.60;;;11.70;99.90;;;;;;5118894;28;20052;-82
2022/03/15 10:14:10;;;;;;;14.40;5.18;;;11.60;99.90;;;;;;5120977;28;20036;-80
2022/03/15 10:16:40;;;;;;;11.35;5.30;;;11.50;99.90;;;;;;5103073;28;20069;-81
2022/03/15 10:19:12;;;;;;;13.55;6.63;;;11.40;99.90;;;;;;5099918;28;20024;-79
2022/03/15 10:21:54;;;;;;;;;;;11.50;99.90;;;;;;5102745;28;20027;-81
2022/03/15 10:24:26;;;;;;;11.27;6.45;;;11.70;99.90;;;;;;5122321;28;19914;-80
2022/03/15 10:26:57;;;;;;;12.77;5.93;;;11.70;99.90;;;;;;5106524;28;20035;-80
2022/03/15 10:29:26;;;;;;;9.10;5.90;;;11.70;99.90;;;;;;5103764;28;20026;-80
2022/03/15 10:31:52;;;;;;;9.30;5.30;;;11.80;99.90;;;;;;5120298;28;20038;-79
2022/03/15 10:34:19;;;;;;;11.90;5.38;;;11.70;99.90;;;;;;5103532;28;20031;-81
2022/03/15 10:36:47;;;;;;;12.80;5.28;;;11.80;99.90;;;;;;5119454;27;20022;-80
2022/03/15 10:39:17;;;;;;;17.52;6.30;;;11.60;99.90;;;;;;5096798;28;20078;-83
2022/03/15 10:41:48;;;;;;;9.70;4.93;;;11.50;99.90;;;;;;5096972;28;20080;-80
2022/03/15 10:44:15;;;;;;;9.23;5.18;;;11.50;99.90;;;;;;5096429;28;20509;-81
2022/03/15 10:46:41;;;;;;;8.20;5.00;;;11.50;99.90;;;;;;5119203;28;20023;-80
2022/03/15 10:49:06;;;;;;;9.02;5.13;;;11.30;99.90;;;;;;5102349;28;20027;-79
2022/03/15 10:51:32;;;;;;;16.35;6.07;;;11.10;99.90;;;;;;5118005;28;20031;-81
2022/03/15 10:54:03;;;;;;;12.57;6.15;;;11.10;99.90;;;;;;5101951;28;20043;-80
2022/03/15 10:56:29;;;;;;;;;;;11.10;99.90;;;;;;5115867;28;20023;-77
2022/03/15 10:58:59;;;;;;;7.40;4.70;;;11.10;99.90;;;;;;5114703;28;19914;-78
2022/03/15 11:01:26;;;;;;;7.77;5.13;;;10.90;99.90;;;;;;5097750;28;20032;-80
2022/03/15 11:04:00;;;;;;;10.63;5.47;;;10.80;99.90;;;;;;5112322;28;20065;-80
2022/03/15 11:06:46;;;;;;;7.70;5.38;;;10.60;99.90;;;;;;5117025;28;20031;-79
2022/03/15 11:09:32;;;;;;;12.48;4.53;;;11.00;99.90;;;;;;5099720;28;20020;-80
2022/03/15 11:12:07;;;;;;;9.02;5.25;;;11.30;99.90;;;;;;5102690;28;20034;-79
2022/03/15 11:14:41;;;;;;;11.10;5.43;;;11.50;99.90;;;;;;5102638;28;20084;-80
2022/03/15 11:17:15;;;;;;;10.13;5.55;;;11.50;99.90;;;;;;5103980;28;20019;-79
2022/03/15 11:19:48;;;;;;;14.02;6.10;;;11.40;99.90;;;;;;5102891;28;20031;-80
2022/03/15 11:22:17;;;;;;;9.18;5.15;;;11.10;99.90;;;;;;5096382;28;20028;-78
2022/03/15 11:24:46;;;;;;;10.75;5.60;;;11.10;99.90;;;;;;5111775;28;20032;-80
2022/03/15 11:27:17;;;;;;;11.35;6.35;;;11.00;99.90;;;;;;5118521;28;20020;-80
2022/03/15 11:29:47;;;;;;;10.73;5.85;;;11.00;99.90;;;;;;5101977;28;20051;-80
2022/03/15 11:32:14;;;;;;;9.60;6.20;;;11.10;99.90;;;;;;5108988;28;20107;-79
2022/03/15 11:34:41;;;;;;;7.68;5.57;;;11.00;99.90;;;;;;5095916;28;20055;-78
2022/03/15 11:37:10;;;;;;;10.45;5.68;;;11.00;99.90;;;;;;5113488;28;20031;-75
2022/03/15 11:39:38;;;;;;;14.10;5.53;;;10.90;99.90;;;;;;5104960;28;20088;-77
2022/03/15 11:42:06;;;;;;;6.95;4.63;;;10.70;99.90;;;;;;5117607;28;20019;-79
2022/03/15 11:44:55;;;;;;;6.32;4.53;;;10.70;99.90;;;;;;5094618;28;20019;-78
2022/03/15 11:47:58;;;;;;;7.97;4.50;;;10.50;99.90;;;;;;5094461;28;20020;-78
2022/03/15 11:50:37;;;;;;;8.18;4.78;;;10.70;99.90;;;;;;5128338;27;20158;-77
2022/03/15 11:53:27;;;;;;;12.43;6.47;;;10.60;99.90;;;;;;5115066;28;20030;-75
2022/03/15 11:56:03;;;;;;;7.87;4.97;;;10.50;99.90;;;;;;5109196;28;20027;-78
2022/03/15 11:58:30;;;;;;;7.13;4.72;;;10.40;99.90;;;;;;5107244;28;20027;-81
2022/03/15 12:01:09;;;;;;;10.20;5.60;;;10.50;99.90;;;;;;5092980;28;20080;-77
2022/03/15 12:03:49;;;;;;;7.13;5.72;;;10.50;99.90;;;;;;5111976;28;20027;-76
2022/03/15 12:06:27;;;;;;;7.88;6.00;;;10.70;99.90;;;;;;5110637;28;20120;-76
2022/03/15 12:09:11;;;;;;;9.63;6.28;;;10.70;99.90;;;;;;5111830;28;20027;-77
2022/03/15 12:11:39;;;;;;;8.23;5.07;;;10.70;99.90;;;;;;5086024;28;20066;-78
2022/03/15 12:14:16;;;;;;;12.15;5.93;;;10.60;99.90;;;;;;5115673;28;20080;-78
2022/03/15 12:16:48;;;;;;;9.52;5.78;;;10.80;99.90;;;;;;5110939;28;20019;-76
2022/03/15 12:19:35;;;;;;;9.80;6.25;;;11.00;99.90;;;;;;5108515;28;20118;-76
2022/03/15 12:22:05;;;;;;;11.50;5.80;;;11.00;99.90;;;;;;5125108;28;20024;-76
2022/03/15 12:25:00;;;;;;;8.20;6.35;;;11.10;99.90;;;;;;5104108;28;20042;-76
2022/03/15 12:27:27;;;;;;;8.23;6.25;;;10.90;99.90;;;;;;5107032;28;20032;-76
2022/03/15 12:29:58;;;;;;;11.30;5.70;;;10.90;99.90;;;;;;5099686;28;20062;-77
2022/03/15 12:32:24;;;;;;;12.25;5.57;;;10.70;99.90;;;;;;5105395;28;20024;-77
2022/03/15 12:34:55;;;;;;;7.45;5.28;;;10.70;99.90;;;;;;5094979;28;20042;-77
2022/03/15 12:37:31;;;;;;;8.65;6.30;;;10.50;99.90;;;;;;5111388;28;20550;-76
2022/03/15 12:39:59;;;;;;;8.95;5.43;;;10.40;99.90;;;;;;5088137;28;20081;-76
2022/03/15 12:42:25;;;;;;;9.43;5.90;;;10.50;99.90;;;;;;5093292;28;20072;-77
2022/03/15 12:45:10;;;;;;;11.05;5.88;;;10.40;99.90;;;;;;5089562;28;20051;-79
2022/03/15 12:47:40;;;;;;;21.80;6.63;;;10.20;99.90;;;;;;5101510;28;20032;-76
2022/03/15 12:50:11;;;;;;;11.10;6.93;;;10.10;99.90;;;;;;5084695;28;20031;-74
2022/03/15 12:52:42;;;;;;;7.78;6.30;;;10.10;99.90;;;;;;5113706;28;20387;-77